Cold Bay, AK (99571)

1:22 PM AKST on November 23, 2014 (GMT -0900)
Cold Bay | Change Station
CLOSE
Current Station
Airport
Location: Cold Bay,
Elevation: 102 ft
Nearby Weather Stations

Elev 102 ft 55.22 °N, 162.73 °W | Updated 29 minutes ago

Overcast
Overcast
40 °F
Feels Like 32 °F
N
13
Wind Variable Wind from NNW

Today
High -- | Low -- °F
--% Chance of Precip.
Yesterday
High -- | Low -- °F
Precip. -- in
9:39 AM 5:34 PM
New Moon, 2% visible
Pressure 29.31 in
Visibility 10.0 miles
Clouds Mostly Cloudy 1200 ft
Overcast 1800 ft
Windchill 32 °F
Dew Point 39 °F
Humidity 97%
Rainfall 0.00 in
Snow Depth Not available.
UV 0 out of 12
Pollen Not available.
Air Quality Not available.
Flu Activity Not available.
METAR PACD 232153Z 33011KT 10SM BKN012 OVC018 04/04 A2930 RMK AO2 SLP924 T00440039 $

More Conditions Fewer Conditions

Pressure 29.31 in
Visibility 10.0 miles
Clouds Mostly Cloudy 1200 ft
Overcast 1800 ft
Windchill 32 °F
Dew Point 39 °F
Humidity 97%
Rainfall 0.00 in
Snow Depth Not available.
UV 0 out of 12
Pollen Not available.
Air Quality Not available.
Flu Activity Not available.
METAR PACD 232153Z 33011KT 10SM BKN012 OVC018 04/04 A2930 RMK AO2 SLP924 T00440039 $

More Conditions Fewer Conditions

10-Day Weather Forecast

Almanac

Astronomy

Nov. 23, 2014 Rise Set
Actual Time
Civil Twilight
Nautical Twilight
Astronomical Twilight
Moon
Length of Visible Light
Length of Day
Tomorrow will be .
, % of the Moon is Illuminated

Today's Extremes

State Highs State Lows

Community

WunderPhotos

Upload Photos

1,773,186 photos uploaded!

WunderBlogs® & News

Nearby

Air Quality

  Air Quality AQ Index Pollutant
Not available.

Snow Depth

Station Depth Elevation

Earthquake Activity

City Distance Mag. Time & Date
Minimum magnitude displayed is 2.5.

Coastal Water Temperatures

Place Temperature

Nearby Weather Stations